Skip to content
You are here: Gozo Weather
Gozo Weather Station for the very latest live weather conditions from Gozo and Malta
 
 TIME   TEMPERATURE   WINDSPEED   DIRECTION   HUMIDITY   BAROMETER   RAINFALL 
4:15 22.1°C (71.8°F) 0.0 kmh (0.0 mph) WNW 63% 1021.0hPa (30.15 inHg) 0.0mm (0.00 in.)
3:15 22.1°C (71.8 °F) 0.0 kmh (0.0 mph) NW 63% 1021.0hPa (30.15 inHg) 0.0mm (0.00 in.)
2:15 22.2°C (72.0 °F) 0.0 kmh (0.0 mph) WNW 63% 1021.0hPa (30.15 inHg) 0.0mm (0.00 in.)
1:15 22.1°C (71.8 °F) 0.0 kmh (0.0 mph) WNW 63% 1022.0hPa (30.18 inHg) 0.0mm (0.00 in.)
12:15 22.0°C (71.6 °F) 0.0 kmh (0.0 mph) WNW 63% 1022.0hPa (30.18 inHg) 0.0mm (0.00 in.)
11:15 22.0°C (71.6 °F) 0.0 kmh (0.0 mph) WNW 63% 1022.0hPa (30.18 inHg) 0.0mm (0.00 in.)
10:15 22.3°C (72.1 °F) 0.0 kmh (0.0 mph) WNW 62% 1022.0hPa (30.18 inHg) 0.0mm (0.00 in.)
9:15 22.4°C (72.3 °F) 0.0 kmh (0.0 mph) WNW 60% 1022.0hPa (30.18 inHg) 0.0mm (0.00 in.)
8:15 22.7°C (72.9 °F) 0.0 kmh (0.0 mph) WNW 58% 1022.0hPa (30.18 inHg) 0.0mm (0.00 in.)
7:12 23.8°C (74.8 °F) 0.0 kmh (0.0 mph) WNW 55% 1022.0hPa (30.18 inHg) 0.0mm (0.00 in.)
6:11 25.1°C (77.2 °F) 0.0 kmh (0.0 mph) NW 53% 1022.0hPa (30.18 inHg) 0.0mm (0.00 in.)
5:11 25.4°C (77.7 °F) 13.0 kmh (8.1 mph) WNW 52% 1022.0hPa (30.18 inHg) 0.0mm (0.00 in.)
4:11 25.6°C (78.1 °F) 13.0 kmh (8.1 mph) WNW 52% 1022.0hPa (30.18 inHg) 0.0mm (0.00 in.)
3:11 25.5°C (77.9 °F) 14.8 kmh (9.2 mph) WNW 51% 1023.0hPa (30.21 inHg) 0.0mm (0.00 in.)
2:11 26.3°C (79.3 °F) 16.7 kmh (10.4 mph) W 49% 1023.0hPa (30.21 inHg) 0.0mm (0.00 in.)
1:11 25.9°C (78.6 °F) 13.0 kmh (8.1 mph) W 50% 1024.0hPa (30.24 inHg) 0.0mm (0.00 in.)
12:11 26.0°C (78.8 °F) 13.0 kmh (8.1 mph) W 50% 1024.0hPa (30.24 inHg) 0.0mm (0.00 in.)
11:04 25.4°C (77.7 °F) 13.0 kmh (8.1 mph) W 51% 1024.0hPa (30.24 inHg) 0.0mm (0.00 in.)
10:04 26.5°C (79.7 °F) 5.6 kmh (3.5 mph) W 53% 1024.0hPa (30.24 inHg) 0.0mm (0.00 in.)
9:04 25.5°C (77.9 °F) 0.0 kmh (0.0 mph) WSW 54% 1024.0hPa (30.24 inHg) 0.0mm (0.00 in.)
8:04 21.4°C (70.5 °F) 0.0 kmh (0.0 mph) WSW 58% 1024.0hPa (30.24 inHg) 0.0mm (0.00 in.)
7:04 21.1°C (70.0 °F) 0.0 kmh (0.0 mph) WSW 57% 1024.0hPa (30.24 inHg) 0.0mm (0.00 in.)
6:04 21.2°C (70.2 °F) 0.0 kmh (0.0 mph) WSW 57% 1024.0hPa (30.24 inHg) 0.0mm (0.00 in.)
5:04 21.3°C (70.3 °F) 0.0 kmh (0.0 mph) WSW 57% 1024.0hPa (30.24 inHg) 0.0mm (0.00 in.)

You need the latest version of Flash Player to view some of our content.


Why not download and install the latest version now?
It will only take you a moment and will ensure that you can view all the latest flash designed websites.

Translate this page

Animated Satellite

Click per aprire http://www.gozo.ws/Animation.php
copyright 2014 EUMETSAT

European Lightning Activity


Please click image for full size

Sponsored Links